createdAt,value
2023-03-12T00:00:57.687Z,6.50
2023-03-12T00:02:00.659Z,5.00
2023-03-12T00:03:03.552Z,3.00
2023-03-12T00:04:06.607Z,3.83
2023-03-12T00:05:09.503Z,4.83
2023-03-12T00:06:12.358Z,4.86
2023-03-12T00:07:15.179Z,5.67
2023-03-12T00:08:18.060Z,4.50
2023-03-12T00:09:20.903Z,5.86
2023-03-12T00:10:23.740Z,4.50
2023-03-12T00:11:26.571Z,5.00
2023-03-12T00:12:29.341Z,5.17
2023-03-12T00:13:32.256Z,3.33
2023-03-12T00:14:35.159Z,5.00
2023-03-12T00:15:38.082Z,5.00
2023-03-12T00:16:41.000Z,4.83
2023-03-12T00:17:43.928Z,5.57
2023-03-12T00:18:47.364Z,5.67
2023-03-12T00:19:50.210Z,4.14
2023-03-12T00:20:52.860Z,4.50
2023-03-12T00:21:55.402Z,6.00
2023-03-12T00:22:58.074Z,4.00
2023-03-12T00:24:00.632Z,5.00
2023-03-12T00:25:03.283Z,6.00
2023-03-12T00:26:05.900Z,6.67
2023-03-12T00:27:08.546Z,5.00
2023-03-12T00:28:11.169Z,5.83
2023-03-12T00:29:13.796Z,5.67
2023-03-12T00:30:16.454Z,4.83
2023-03-12T00:31:19.025Z,4.67
2023-03-12T00:32:21.712Z,4.33
2023-03-12T00:33:24.453Z,4.67
2023-03-12T00:34:27.346Z,4.67
2023-03-12T00:35:30.218Z,4.71
2023-03-12T00:36:33.093Z,3.83
2023-03-12T00:37:35.967Z,5.33
2023-03-12T00:38:38.824Z,5.14
2023-03-12T00:39:41.699Z,5.50
2023-03-12T00:40:44.572Z,6.43
2023-03-12T00:41:47.480Z,6.00
2023-03-12T00:42:50.361Z,6.00
2023-03-12T00:43:53.204Z,4.71
2023-03-12T00:44:56.111Z,4.67
2023-03-12T00:45:58.875Z,7.17
2023-03-12T00:47:01.840Z,4.67
2023-03-12T00:48:04.765Z,5.83
2023-03-12T00:49:07.804Z,6.71
2023-03-12T00:50:10.696Z,5.86
2023-03-12T00:51:13.586Z,6.33
2023-03-12T00:52:16.607Z,5.17
2023-03-12T00:53:19.492Z,5.43
2023-03-12T00:54:22.037Z,5.83
2023-03-12T00:55:24.951Z,8.00
2023-03-12T00:56:27.768Z,7.43
2023-03-12T00:57:30.948Z,6.17
2023-03-12T00:58:33.833Z,4.86
2023-03-12T00:59:36.712Z,6.33
2023-03-12T01:00:39.391Z,6.33
2023-03-12T01:01:42.275Z,5.33
2023-03-12T01:02:45.176Z,5.33
2023-03-12T01:03:48.182Z,4.67
2023-03-12T01:04:51.137Z,5.29
2023-03-12T01:05:54.063Z,3.86
2023-03-12T01:06:56.949Z,3.83
2023-03-12T01:07:59.795Z,5.33
2023-03-12T01:09:03.078Z,4.71
2023-03-12T01:10:06.088Z,6.00
2023-03-12T01:11:08.963Z,6.83
2023-03-12T01:12:11.837Z,4.83
2023-03-12T01:13:14.657Z,4.57
2023-03-12T01:14:17.474Z,5.50
2023-03-12T01:15:20.344Z,6.33
2023-03-12T01:16:23.121Z,6.43
2023-03-12T01:17:25.901Z,5.67
2023-03-12T01:18:28.502Z,4.33
2023-03-12T01:19:31.191Z,4.33
2023-03-12T01:20:33.858Z,6.67
2023-03-12T01:21:36.495Z,6.17
2023-03-12T01:22:39.141Z,6.67
2023-03-12T01:23:41.804Z,6.00
2023-03-12T01:24:44.386Z,5.83
2023-03-12T01:25:47.037Z,6.67
2023-03-12T01:26:49.676Z,5.50
2023-03-12T01:27:52.291Z,6.00
2023-03-12T01:28:55.046Z,5.33
2023-03-12T01:29:57.600Z,5.00
2023-03-12T01:31:00.280Z,4.33
2023-03-12T01:32:02.923Z,4.67
2023-03-12T01:33:05.537Z,5.67
2023-03-12T01:34:08.168Z,4.67
2023-03-12T01:35:10.874Z,4.00
2023-03-12T01:36:13.694Z,5.33
2023-03-12T01:37:16.367Z,6.14
2023-03-12T01:38:18.895Z,5.50
2023-03-12T01:39:21.532Z,6.00
2023-03-12T01:40:24.148Z,6.71
2023-03-12T01:41:26.844Z,5.83
2023-03-12T01:42:29.452Z,4.50
2023-03-12T01:43:32.014Z,4.67
2023-03-12T01:44:34.700Z,5.00
2023-03-12T01:45:37.484Z,5.67
2023-03-12T01:46:40.159Z,5.17
2023-03-12T01:47:42.844Z,4.67
2023-03-12T01:48:45.565Z,4.67
2023-03-12T01:49:48.163Z,4.50
2023-03-12T01:50:50.776Z,4.50
2023-03-12T01:51:53.345Z,5.00
2023-03-12T01:52:55.946Z,5.00
2023-03-12T01:53:58.597Z,4.33
2023-03-12T01:55:01.232Z,4.33
2023-03-12T01:56:03.809Z,5.50
2023-03-12T01:57:06.628Z,5.67
2023-03-12T01:58:09.194Z,6.67
2023-03-12T01:59:11.847Z,5.33
2023-03-12T02:00:14.429Z,3.67
2023-03-12T02:01:17.216Z,3.50
2023-03-12T02:02:19.866Z,5.00
2023-03-12T02:03:22.482Z,5.00
2023-03-12T02:04:25.125Z,6.67
2023-03-12T02:05:27.713Z,6.17
2023-03-12T02:06:30.412Z,5.67
2023-03-12T02:07:33.016Z,6.17
2023-03-12T02:08:35.643Z,6.83
2023-03-12T02:09:38.276Z,5.00
2023-03-12T02:10:40.953Z,4.50
2023-03-12T02:11:43.543Z,4.00
2023-03-12T02:12:46.187Z,5.17
2023-03-12T02:13:48.846Z,6.00
2023-03-12T02:14:51.466Z,5.00
2023-03-12T02:15:54.045Z,5.17
2023-03-12T02:16:56.685Z,4.67
2023-03-12T02:17:59.292Z,4.00
2023-03-12T02:19:01.966Z,4.33
2023-03-12T02:20:04.679Z,5.33
2023-03-12T02:21:07.238Z,5.67
2023-03-12T02:22:09.849Z,3.57
2023-03-12T02:23:12.861Z,5.00
2023-03-12T02:24:15.515Z,5.14
2023-03-12T02:25:19.328Z,7.33
2023-03-12T02:26:22.306Z,6.75
2023-03-12T02:27:25.102Z,5.14
2023-03-12T02:28:28.120Z,4.00
2023-03-12T02:29:30.962Z,5.86
2023-03-12T02:30:33.923Z,4.57
2023-03-12T02:31:36.835Z,4.33
2023-03-12T02:32:39.897Z,4.14
2023-03-12T02:33:42.771Z,3.86
2023-03-12T02:34:45.648Z,4.83
2023-03-12T02:35:48.565Z,6.00
2023-03-12T02:36:51.458Z,6.57
2023-03-12T02:37:54.414Z,4.67
2023-03-12T02:38:57.307Z,4.33
2023-03-12T02:40:00.168Z,4.00
2023-03-12T02:41:02.988Z,3.83
2023-03-12T02:42:05.896Z,4.00
2023-03-12T02:43:08.757Z,2.71
2023-03-12T02:44:11.660Z,3.67
2023-03-12T02:45:14.481Z,5.50
2023-03-12T02:46:17.480Z,5.00
2023-03-12T02:47:20.449Z,4.50
2023-03-12T02:48:23.296Z,5.33
2023-03-12T02:49:26.124Z,4.71
2023-03-12T02:50:28.975Z,4.33
2023-03-12T02:51:32.104Z,4.67
2023-03-12T02:52:35.051Z,4.57
2023-03-12T02:53:37.772Z,4.57
2023-03-12T02:54:40.466Z,3.50
2023-03-12T02:55:43.119Z,3.00
2023-03-12T02:56:45.724Z,4.33
2023-03-12T02:57:48.365Z,3.00
2023-03-12T02:58:51.023Z,4.67
2023-03-12T02:59:53.714Z,5.83
2023-03-12T03:00:56.407Z,5.00
2023-03-12T03:01:59.085Z,3.83
2023-03-12T03:03:01.768Z,5.00
2023-03-12T03:04:04.467Z,4.43
2023-03-12T03:05:07.036Z,4.67
2023-03-12T03:06:10.065Z,4.00
2023-03-12T03:07:12.647Z,3.83
2023-03-12T03:08:15.420Z,4.00
2023-03-12T03:09:18.423Z,4.00
2023-03-12T03:10:21.165Z,4.86
2023-03-12T03:11:23.894Z,5.33
2023-03-12T03:12:26.491Z,4.00
2023-03-12T03:13:29.167Z,4.83
2023-03-12T03:14:31.746Z,5.00
2023-03-12T03:15:34.662Z,5.33
2023-03-12T03:16:37.277Z,6.33
2023-03-12T03:17:40.118Z,6.17
2023-03-12T03:18:42.922Z,6.00
2023-03-12T03:19:45.834Z,6.29
2023-03-12T03:20:48.466Z,6.33
2023-03-12T03:21:51.129Z,6.67
2023-03-12T03:22:53.814Z,5.00
2023-03-12T03:23:56.642Z,5.50
2023-03-12T03:24:59.305Z,5.00
2023-03-12T03:26:02.191Z,4.86
2023-03-12T03:27:04.874Z,3.67
2023-03-12T03:28:07.457Z,4.71
2023-03-12T03:29:11.479Z,5.67
2023-03-12T03:30:14.335Z,5.00
2023-03-12T03:31:16.954Z,5.57
2023-03-12T03:32:19.945Z,5.33
2023-03-12T03:33:22.841Z,5.86
2023-03-12T03:34:25.721Z,5.43
2023-03-12T03:35:28.429Z,5.50
2023-03-12T03:36:31.250Z,5.67
2023-03-12T03:37:34.140Z,7.00
2023-03-12T03:38:39.811Z,6.14
2023-03-12T03:39:42.712Z,6.00
2023-03-12T03:40:45.408Z,6.83
2023-03-12T03:41:48.062Z,6.00
2023-03-12T03:42:50.729Z,5.67
2023-03-12T03:43:53.393Z,5.17
2023-03-12T03:44:56.270Z,7.00
2023-03-12T03:45:58.852Z,8.00
2023-03-12T03:47:02.012Z,6.00
2023-03-12T03:48:04.609Z,6.86
2023-03-12T03:49:07.518Z,6.83
2023-03-12T03:50:10.238Z,6.43
2023-03-12T03:51:12.922Z,6.33
2023-03-12T03:52:15.564Z,6.17
2023-03-12T03:53:18.214Z,6.67
2023-03-12T03:54:21.046Z,5.00
2023-03-12T03:55:23.697Z,5.71
2023-03-12T03:56:26.333Z,6.67
2023-03-12T03:57:29.035Z,6.33
2023-03-12T03:58:31.652Z,5.33
2023-03-12T03:59:34.284Z,6.17
2023-03-12T04:00:36.932Z,4.67
2023-03-12T04:01:39.539Z,3.33
2023-03-12T04:02:42.418Z,4.17
2023-03-12T04:03:45.148Z,4.43
2023-03-12T04:04:48.005Z,5.67
2023-03-12T04:05:50.915Z,5.86
2023-03-12T04:06:53.756Z,5.00
2023-03-12T04:07:56.359Z,5.50
2023-03-12T04:08:58.941Z,5.67
2023-03-12T04:10:01.557Z,5.83
2023-03-12T04:11:04.196Z,6.67
2023-03-12T04:12:07.081Z,5.33
2023-03-12T04:13:09.649Z,4.67
2023-03-12T04:14:12.264Z,5.17
2023-03-12T04:15:14.839Z,4.29
2023-03-12T04:16:17.482Z,2.67
2023-03-12T04:17:20.052Z,4.33
2023-03-12T04:18:22.854Z,5.43
2023-03-12T04:19:25.502Z,5.67
2023-03-12T04:20:28.205Z,4.50
2023-03-12T04:21:30.845Z,5.83
2023-03-12T04:22:33.452Z,4.17
2023-03-12T04:23:36.002Z,5.57
2023-03-12T04:24:38.585Z,5.17
2023-03-12T04:25:41.205Z,5.33
2023-03-12T04:26:43.729Z,6.00
2023-03-12T04:27:46.363Z,6.67
2023-03-12T04:28:49.029Z,4.50
2023-03-12T04:29:51.711Z,5.17
2023-03-12T04:30:54.420Z,5.00
2023-03-12T04:31:57.023Z,5.33
2023-03-12T04:32:59.699Z,5.83
2023-03-12T04:34:02.302Z,5.17
2023-03-12T04:35:05.030Z,7.00
2023-03-12T04:36:07.645Z,5.50
2023-03-12T04:37:10.433Z,5.67
2023-03-12T04:38:13.034Z,7.00
2023-03-12T04:39:15.656Z,6.67
2023-03-12T04:40:18.375Z,7.17
2023-03-12T04:41:20.955Z,8.50
2023-03-12T04:42:23.628Z,7.33
2023-03-12T04:43:26.249Z,8.43
2023-03-12T04:44:28.863Z,8.50
2023-03-12T04:45:31.450Z,6.00
2023-03-12T04:46:34.095Z,6.67
2023-03-12T04:47:36.757Z,7.00
2023-03-12T04:48:39.318Z,7.00
2023-03-12T04:49:41.943Z,5.33
2023-03-12T04:50:44.606Z,5.67
2023-03-12T04:51:47.308Z,7.00
2023-03-12T04:52:49.900Z,6.67
2023-03-12T04:53:52.524Z,6.17
2023-03-12T04:54:55.093Z,6.57
2023-03-12T04:55:57.684Z,5.83
2023-03-12T04:57:00.301Z,4.83
2023-03-12T04:58:02.987Z,5.17
2023-03-12T04:59:05.594Z,6.00
2023-03-12T05:00:08.174Z,6.00
2023-03-12T05:01:10.736Z,5.67
2023-03-12T05:02:13.410Z,6.67
2023-03-12T05:03:16.059Z,6.67
2023-03-12T05:04:18.692Z,8.00
2023-03-12T05:05:21.375Z,7.33
2023-03-12T05:06:23.971Z,6.67
2023-03-12T05:07:26.735Z,6.33
2023-03-12T05:08:29.319Z,5.67
2023-03-12T05:09:31.935Z,6.33
2023-03-12T05:10:34.564Z,4.50
2023-03-12T05:11:39.586Z,4.33
2023-03-12T05:12:41.074Z,5.86
2023-03-12T05:13:43.673Z,6.50
2023-03-12T05:14:46.317Z,6.67
2023-03-12T05:15:49.480Z,6.00
2023-03-12T05:16:52.349Z,6.00
2023-03-12T05:17:55.061Z,8.00
2023-03-12T05:18:57.689Z,7.50
2023-03-12T05:20:00.479Z,7.00
2023-03-12T05:21:03.370Z,8.00
2023-03-12T05:22:05.978Z,7.14
2023-03-12T05:23:08.952Z,6.67
2023-03-12T05:24:11.676Z,7.14
2023-03-12T05:25:14.287Z,6.33
2023-03-12T05:26:16.913Z,5.50
2023-03-12T05:27:19.558Z,6.00
2023-03-12T05:28:22.155Z,6.33
2023-03-12T05:29:24.798Z,6.50
2023-03-12T05:30:27.435Z,6.00
2023-03-12T05:31:30.155Z,5.33
2023-03-12T05:32:32.943Z,6.33
2023-03-12T05:33:35.622Z,6.50
2023-03-12T05:34:38.340Z,6.00
2023-03-12T05:35:41.031Z,7.50
2023-03-12T05:36:43.803Z,6.50
2023-03-12T05:37:46.358Z,6.14
2023-03-12T05:38:48.967Z,6.33
2023-03-12T05:39:51.557Z,5.50
2023-03-12T05:40:54.280Z,6.50
2023-03-12T05:41:56.884Z,7.00
2023-03-12T05:42:59.522Z,6.00
2023-03-12T05:44:02.156Z,6.33
2023-03-12T05:45:05.146Z,5.50
2023-03-12T05:46:07.999Z,4.14
2023-03-12T05:47:10.779Z,4.67
2023-03-12T05:48:13.616Z,6.00
2023-03-12T05:49:16.452Z,6.33
2023-03-12T05:50:19.091Z,7.00
2023-03-12T05:51:21.675Z,6.67
2023-03-12T05:52:24.261Z,5.33
2023-03-12T05:53:26.878Z,5.00
2023-03-12T05:54:29.676Z,4.50
2023-03-12T05:55:32.642Z,5.50
2023-03-12T05:56:35.158Z,5.50
2023-03-12T05:57:37.915Z,4.50
2023-03-12T05:58:40.576Z,5.71
2023-03-12T05:59:43.511Z,4.33
2023-03-12T06:00:46.155Z,5.57
2023-03-12T06:01:49.129Z,7.33
2023-03-12T06:02:51.799Z,5.14
2023-03-12T06:03:54.476Z,6.33
2023-03-12T06:04:57.185Z,4.33
2023-03-12T06:06:00.002Z,5.17
2023-03-12T06:07:03.019Z,7.67
2023-03-12T06:08:05.672Z,7.00
2023-03-12T06:09:08.248Z,6.83
2023-03-12T06:10:11.130Z,5.33
2023-03-12T06:11:13.847Z,6.00
2023-03-12T06:12:16.758Z,6.67
2023-03-12T06:13:19.391Z,4.00
2023-03-12T06:14:24.775Z,4.00
2023-03-12T06:15:27.394Z,5.50
2023-03-12T06:16:30.096Z,6.00
2023-03-12T06:17:32.985Z,5.00
2023-03-12T06:18:35.668Z,4.67
2023-03-12T06:19:38.383Z,4.33
2023-03-12T06:20:41.158Z,5.00
2023-03-12T06:21:44.430Z,5.17
2023-03-12T06:22:47.280Z,6.50
2023-03-12T06:23:49.975Z,5.50
2023-03-12T06:24:53.050Z,6.00
2023-03-12T06:25:55.756Z,6.50
2023-03-12T06:26:58.338Z,6.71
2023-03-12T06:28:01.000Z,6.67
2023-03-12T06:29:03.878Z,5.67
2023-03-12T06:30:06.526Z,5.14
2023-03-12T06:31:09.484Z,6.00
2023-03-12T06:32:12.248Z,8.00
2023-03-12T06:33:14.874Z,8.33
2023-03-12T06:34:17.552Z,8.83
2023-03-12T06:35:20.277Z,5.50
2023-03-12T06:36:23.105Z,5.33
2023-03-12T06:37:25.681Z,6.33
2023-03-12T06:38:30.433Z,6.33
2023-03-12T06:39:33.267Z,6.25
2023-03-12T06:40:35.942Z,6.17
2023-03-12T06:41:38.638Z,9.33
2023-03-12T06:42:41.309Z,8.57
2023-03-12T06:43:44.173Z,7.00
2023-03-12T06:44:46.785Z,5.86
2023-03-12T06:45:50.718Z,4.83
2023-03-12T06:46:53.376Z,6.87
2023-03-12T06:47:55.988Z,7.67
2023-03-12T06:48:58.805Z,6.67
2023-03-12T06:50:01.396Z,5.67
2023-03-12T06:51:04.128Z,7.17
2023-03-12T06:52:06.726Z,7.33
2023-03-12T06:53:09.334Z,7.33
2023-03-12T06:54:12.087Z,7.00
2023-03-12T06:55:14.751Z,7.83
2023-03-12T06:56:17.309Z,7.67
2023-03-12T06:57:20.051Z,7.00
2023-03-12T06:58:22.672Z,7.17
2023-03-12T06:59:25.408Z,6.00
2023-03-12T07:00:28.431Z,5.57
2023-03-12T07:01:31.010Z,6.50
2023-03-12T07:02:33.672Z,6.14
2023-03-12T07:03:36.613Z,6.17
2023-03-12T07:04:39.316Z,6.14
2023-03-12T07:05:41.987Z,6.33
2023-03-12T07:06:44.650Z,7.33
2023-03-12T07:07:47.646Z,8.29
2023-03-12T07:08:50.437Z,8.00
2023-03-12T07:09:56.321Z,7.67
2023-03-12T07:11:01.220Z,7.50
2023-03-12T07:12:02.967Z,8.00
2023-03-12T07:13:06.853Z,6.43
2023-03-12T07:14:09.383Z,5.57
2023-03-12T07:15:11.999Z,5.43
2023-03-12T07:16:14.742Z,6.00
2023-03-12T07:17:17.341Z,8.14
2023-03-12T07:18:19.924Z,7.50
2023-03-12T07:19:22.522Z,6.33
2023-03-12T07:20:26.809Z,8.67
2023-03-12T07:21:29.043Z,8.86
2023-03-12T07:22:33.720Z,6.17
2023-03-12T07:23:35.627Z,7.00
2023-03-12T07:24:38.323Z,7.00
2023-03-12T07:25:44.022Z,8.00
2023-03-12T07:26:46.819Z,11.50
2023-03-12T07:27:49.463Z,9.83
2023-03-12T07:28:52.134Z,7.67
2023-03-12T07:29:54.921Z,8.33
2023-03-12T07:30:57.627Z,8.50
2023-03-12T07:32:00.336Z,7.50
2023-03-12T07:33:03.272Z,9.00
2023-03-12T07:34:06.153Z,9.67
2023-03-12T07:35:08.920Z,10.83
2023-03-12T07:36:11.777Z,8.00
2023-03-12T07:37:14.807Z,7.33
2023-03-12T07:38:17.533Z,8.00
2023-03-12T07:39:20.285Z,8.33
2023-03-12T07:40:23.117Z,9.00
2023-03-12T07:41:26.006Z,8.67
2023-03-12T07:42:28.845Z,7.33
2023-03-12T07:43:31.603Z,6.71
2023-03-12T07:44:34.250Z,6.33
2023-03-12T07:45:36.868Z,7.33
2023-03-12T07:46:39.710Z,7.14
2023-03-12T07:47:42.577Z,6.17
2023-03-12T07:48:45.208Z,7.71
2023-03-12T07:49:48.213Z,8.00
2023-03-12T07:50:51.025Z,9.00
2023-03-12T07:51:54.123Z,8.33
2023-03-12T07:52:56.909Z,7.29
2023-03-12T07:53:59.606Z,8.17
2023-03-12T07:55:02.178Z,6.50
2023-03-12T07:56:04.917Z,8.00
2023-03-12T07:57:07.793Z,8.83
2023-03-12T07:58:10.778Z,7.83
2023-03-12T07:59:13.543Z,8.14
2023-03-12T08:00:16.431Z,7.17
2023-03-12T08:01:19.468Z,7.71
2023-03-12T08:02:22.181Z,7.33
2023-03-12T08:03:25.209Z,7.33
2023-03-12T08:04:28.153Z,6.86
2023-03-12T08:05:30.835Z,8.67
2023-03-12T08:06:33.495Z,9.57
2023-03-12T08:07:36.176Z,9.67
2023-03-12T08:08:38.911Z,7.83
2023-03-12T08:09:41.627Z,8.00
2023-03-12T08:10:44.254Z,8.17
2023-03-12T08:11:46.973Z,8.67
2023-03-12T08:12:49.711Z,9.57
2023-03-12T08:13:52.447Z,8.83
2023-03-12T08:14:55.019Z,8.00
2023-03-12T08:15:57.603Z,8.00
2023-03-12T08:17:00.255Z,8.33
2023-03-12T08:18:02.869Z,9.17
2023-03-12T08:19:05.486Z,10.67
2023-03-12T08:20:08.430Z,10.67
2023-03-12T08:21:11.413Z,9.29
2023-03-12T08:22:14.057Z,8.67
2023-03-12T08:23:16.886Z,6.71
2023-03-12T08:24:19.612Z,6.33
2023-03-12T08:25:22.558Z,8.00
2023-03-12T08:26:25.165Z,8.00
2023-03-12T08:27:28.105Z,8.00
2023-03-12T08:28:30.859Z,8.00
2023-03-12T08:29:33.580Z,7.57
2023-03-12T08:30:36.214Z,7.67
2023-03-12T08:31:40.652Z,8.67
2023-03-12T08:32:42.669Z,8.00
2023-03-12T08:33:45.414Z,8.00
2023-03-12T08:34:47.981Z,6.29
2023-03-12T08:35:50.572Z,6.83
2023-03-12T08:36:53.430Z,9.33
2023-03-12T08:37:56.295Z,11.00
2023-03-12T08:38:58.942Z,10.17
2023-03-12T08:40:01.898Z,8.43
2023-03-12T08:41:04.557Z,8.00
2023-03-12T08:42:07.176Z,7.57
2023-03-12T08:43:14.573Z,8.00
2023-03-12T08:44:17.113Z,8.75
2023-03-12T08:45:19.905Z,7.33
2023-03-12T08:46:22.673Z,6.50
2023-03-12T08:47:26.502Z,8.00
2023-03-12T08:48:29.178Z,7.50
2023-03-12T08:49:31.778Z,7.17
2023-03-12T08:50:34.496Z,9.67
2023-03-12T08:51:37.292Z,11.33
2023-03-12T08:52:40.010Z,7.67
2023-03-12T08:53:42.729Z,6.33
2023-03-12T08:54:45.329Z,6.67
2023-03-12T08:55:48.265Z,6.33
2023-03-12T08:56:51.143Z,7.33
2023-03-12T08:57:53.739Z,6.43
2023-03-12T08:58:56.334Z,6.83
2023-03-12T08:59:58.968Z,6.33
2023-03-12T09:01:01.735Z,7.00
2023-03-12T09:02:04.360Z,6.33
2023-03-12T09:03:07.053Z,6.67
2023-03-12T09:04:10.073Z,6.57
2023-03-12T09:05:12.802Z,6.33
2023-03-12T09:06:15.886Z,6.00
2023-03-12T09:07:18.529Z,7.00
2023-03-12T09:08:21.431Z,7.33
2023-03-12T09:09:24.089Z,6.33
2023-03-12T09:10:28.781Z,6.67
2023-03-12T09:11:31.040Z,7.50
2023-03-12T09:12:33.653Z,6.33
2023-03-12T09:13:54.639Z,6.17
2023-03-12T09:15:02.406Z,7.75
2023-03-12T09:15:44.446Z,7.71
2023-03-12T09:16:47.402Z,7.71
2023-03-12T09:17:50.011Z,7.67
2023-03-12T09:18:52.917Z,6.67
2023-03-12T09:19:55.703Z,5.67
2023-03-12T09:20:58.395Z,7.67
2023-03-12T09:22:00.964Z,7.83
2023-03-12T09:23:04.839Z,6.33
2023-03-12T09:24:11.136Z,6.43
2023-03-12T09:25:13.801Z,6.25
2023-03-12T09:26:16.686Z,6.67
2023-03-12T09:27:19.355Z,7.00
2023-03-12T09:28:22.276Z,7.00
2023-03-12T09:29:24.926Z,5.43
2023-03-12T09:30:27.730Z,6.33
2023-03-12T09:31:30.493Z,6.00
2023-03-12T09:32:33.186Z,5.33
2023-03-12T09:33:35.776Z,7.00
2023-03-12T09:34:38.376Z,10.67
2023-03-12T09:35:41.102Z,8.67
2023-03-12T09:36:43.653Z,6.50
2023-03-12T09:37:46.342Z,6.00
2023-03-12T09:38:49.051Z,7.00
2023-03-12T09:39:51.797Z,4.17
2023-03-12T09:40:54.452Z,5.00
2023-03-12T09:41:57.068Z,7.00
2023-03-12T09:42:59.616Z,6.67
2023-03-12T09:44:02.305Z,6.33
2023-03-12T09:45:04.927Z,5.00
2023-03-12T09:46:07.589Z,5.83
2023-03-12T09:47:10.181Z,5.17
2023-03-12T09:48:12.740Z,3.83
2023-03-12T09:49:15.485Z,4.33
2023-03-12T09:50:18.312Z,5.50
2023-03-12T09:51:21.137Z,5.50
2023-03-12T09:52:23.808Z,5.00
2023-03-12T09:53:26.659Z,4.67
2023-03-12T09:54:29.583Z,5.50
2023-03-12T09:55:32.275Z,7.17
2023-03-12T09:56:34.959Z,7.17
2023-03-12T09:57:37.865Z,6.50
2023-03-12T09:58:40.524Z,4.86
2023-03-12T09:59:43.247Z,5.67
2023-03-12T10:00:47.545Z,4.67
2023-03-12T10:01:50.226Z,4.50
2023-03-12T10:02:52.956Z,5.43
2023-03-12T10:03:55.888Z,4.17
2023-03-12T10:05:00.113Z,5.17
2023-03-12T10:06:02.366Z,6.12
2023-03-12T10:07:05.097Z,6.00
2023-03-12T10:08:23.159Z,5.17
2023-03-12T10:09:11.546Z,5.14
2023-03-12T10:10:14.471Z,7.00
2023-03-12T10:11:17.134Z,5.50
2023-03-12T10:12:21.102Z,4.17
2023-03-12T10:13:23.752Z,5.50
2023-03-12T10:14:26.438Z,6.33
2023-03-12T10:15:29.183Z,5.17
2023-03-12T10:16:32.011Z,5.00
2023-03-12T10:17:34.540Z,5.57
2023-03-12T10:18:37.574Z,7.00
2023-03-12T10:19:40.480Z,7.00
2023-03-12T10:20:43.388Z,6.00
2023-03-12T10:21:46.146Z,5.29
2023-03-12T10:22:48.736Z,6.33
2023-03-12T10:23:51.400Z,6.67
2023-03-12T10:24:53.989Z,6.17
2023-03-12T10:25:57.094Z,5.33
2023-03-12T10:26:59.665Z,6.00
2023-03-12T10:28:02.521Z,6.33
2023-03-12T10:29:05.139Z,6.29
2023-03-12T10:30:08.057Z,6.00
2023-03-12T10:31:10.780Z,6.57
2023-03-12T10:32:13.493Z,7.67
2023-03-12T10:33:16.145Z,7.00
2023-03-12T10:34:18.760Z,4.83
2023-03-12T10:35:22.051Z,3.83
2023-03-12T10:36:24.796Z,4.43
2023-03-12T10:37:27.367Z,4.83
2023-03-12T10:38:30.216Z,4.83
2023-03-12T10:39:33.137Z,5.33
2023-03-12T10:40:35.758Z,5.71
2023-03-12T10:41:38.381Z,4.67
2023-03-12T10:42:41.113Z,5.00
2023-03-12T10:43:43.973Z,5.57
2023-03-12T10:44:46.621Z,5.67
2023-03-12T10:45:49.250Z,6.29
2023-03-12T10:46:51.893Z,6.33
2023-03-12T10:47:54.461Z,6.33
2023-03-12T10:48:57.157Z,4.67
2023-03-12T10:49:59.852Z,4.00
2023-03-12T10:51:02.413Z,4.67
2023-03-12T10:52:05.119Z,5.00
2023-03-12T10:53:07.767Z,5.67
2023-03-12T10:54:10.537Z,7.67
2023-03-12T10:55:13.223Z,8.67
2023-03-12T10:56:24.165Z,8.00
2023-03-12T10:57:27.242Z,4.17
2023-03-12T10:58:30.357Z,4.50
2023-03-12T10:59:33.607Z,5.00
2023-03-12T11:00:36.792Z,5.00
2023-03-12T11:01:41.572Z,5.86
2023-03-12T11:02:44.484Z,5.00
2023-03-12T11:03:47.471Z,4.50
2023-03-12T11:04:50.441Z,4.33
2023-03-12T11:05:53.458Z,5.43
2023-03-12T11:06:56.634Z,6.57
2023-03-12T11:07:59.693Z,5.17
2023-03-12T11:09:15.753Z,5.33
2023-03-12T11:10:06.964Z,5.87
2023-03-12T11:11:10.064Z,4.57
2023-03-12T11:12:13.028Z,4.43
2023-03-12T11:13:16.147Z,5.29
2023-03-12T11:14:19.112Z,6.50
2023-03-12T11:15:22.072Z,3.67
2023-03-12T11:16:25.332Z,4.14
2023-03-12T11:17:28.525Z,6.00
2023-03-12T11:18:31.946Z,6.86
2023-03-12T11:19:34.890Z,6.57
2023-03-12T11:20:38.036Z,6.50
2023-03-12T11:21:41.018Z,5.50
2023-03-12T11:22:44.328Z,5.50
2023-03-12T11:23:47.306Z,5.00
2023-03-12T11:24:50.397Z,4.67
2023-03-12T11:25:54.488Z,5.29
2023-03-12T11:26:57.772Z,5.50
2023-03-12T11:28:01.048Z,5.00
2023-03-12T11:29:04.153Z,5.71
2023-03-12T11:30:07.263Z,4.00
2023-03-12T11:31:10.363Z,4.29
2023-03-12T11:32:13.471Z,5.29
2023-03-12T11:33:16.527Z,6.67
2023-03-12T11:34:19.637Z,6.00
2023-03-12T11:35:22.763Z,6.00
2023-03-12T11:36:25.906Z,5.00
2023-03-12T11:37:29.182Z,4.71
2023-03-12T11:38:32.362Z,5.71
2023-03-12T11:39:35.668Z,7.43
2023-03-12T11:40:39.037Z,6.71
2023-03-12T11:41:42.113Z,4.29
2023-03-12T11:42:45.502Z,4.00
2023-03-12T11:43:48.890Z,4.86
2023-03-12T11:44:52.174Z,4.57
2023-03-12T11:45:55.258Z,5.29
2023-03-12T11:46:58.776Z,4.00
2023-03-12T11:48:01.728Z,4.14
2023-03-12T11:49:04.997Z,4.00
2023-03-12T11:50:08.282Z,3.71
2023-03-12T11:51:11.436Z,6.00
2023-03-12T11:52:14.554Z,6.86
2023-03-12T11:53:17.624Z,4.86
2023-03-12T11:54:20.807Z,3.67
2023-03-12T11:55:23.851Z,4.83
2023-03-12T11:56:26.883Z,4.00
2023-03-12T11:57:29.814Z,4.00
2023-03-12T11:58:32.841Z,4.33
2023-03-12T11:59:35.834Z,5.00
2023-03-12T12:00:38.980Z,4.00
2023-03-12T12:01:42.000Z,3.43
2023-03-12T12:02:45.015Z,5.43
2023-03-12T12:03:50.604Z,5.14
2023-03-12T12:04:53.752Z,3.12
2023-03-12T12:05:56.831Z,3.17
2023-03-12T12:06:59.934Z,4.17
2023-03-12T12:08:03.111Z,5.71
2023-03-12T12:09:06.189Z,5.71
2023-03-12T12:10:09.360Z,3.71
2023-03-12T12:11:12.455Z,5.00
2023-03-12T12:12:15.535Z,3.57
2023-03-12T12:13:18.603Z,4.00
2023-03-12T12:14:21.786Z,4.50
2023-03-12T12:15:25.284Z,4.14
2023-03-12T12:16:28.356Z,4.43
2023-03-12T12:17:31.541Z,5.00
2023-03-12T12:18:34.645Z,4.86
2023-03-12T12:19:37.807Z,4.33
2023-03-12T12:20:41.262Z,4.14
2023-03-12T12:21:44.470Z,4.00
2023-03-12T12:22:47.650Z,3.83
2023-03-12T12:23:50.831Z,4.17
2023-03-12T12:24:54.111Z,4.50
2023-03-12T12:25:57.917Z,6.00
2023-03-12T12:27:01.094Z,6.17
2023-03-12T12:28:04.592Z,6.00
2023-03-12T12:29:07.771Z,4.43
2023-03-12T12:30:11.037Z,5.33
2023-03-12T12:31:14.327Z,4.86
2023-03-12T12:32:17.402Z,5.00
2023-03-12T12:33:20.688Z,4.67
2023-03-12T12:34:23.760Z,3.43
2023-03-12T12:35:27.159Z,4.67
2023-03-12T12:36:30.340Z,4.43
2023-03-12T12:37:33.629Z,5.50
2023-03-12T12:38:36.803Z,4.00
2023-03-12T12:39:39.905Z,5.33
2023-03-12T12:40:42.968Z,5.67
2023-03-12T12:41:46.062Z,5.17
2023-03-12T12:42:49.336Z,4.14
2023-03-12T12:43:52.607Z,4.57
2023-03-12T12:44:55.695Z,4.71
2023-03-12T12:45:59.010Z,6.14
2023-03-12T12:47:02.085Z,5.43
2023-03-12T12:48:05.343Z,3.86
2023-03-12T12:49:08.522Z,3.43
2023-03-12T12:50:12.024Z,3.43
2023-03-12T12:51:15.198Z,3.57
2023-03-12T12:52:18.278Z,3.57
2023-03-12T12:53:21.449Z,3.86
2023-03-12T12:54:24.653Z,4.57
2023-03-12T12:55:28.021Z,4.29
2023-03-12T12:56:31.301Z,3.00
2023-03-12T12:57:34.590Z,3.43
2023-03-12T12:58:38.087Z,4.43
2023-03-12T12:59:41.266Z,3.86
2023-03-12T13:00:44.566Z,4.43
2023-03-12T13:01:47.554Z,4.57
2023-03-12T13:02:50.696Z,3.57
2023-03-12T13:03:54.020Z,3.43
2023-03-12T13:04:56.963Z,3.00
2023-03-12T13:06:00.179Z,3.43
2023-03-12T13:07:03.233Z,3.86
2023-03-12T13:08:06.603Z,4.00
2023-03-12T13:09:09.688Z,4.67
2023-03-12T13:10:12.680Z,2.83
2023-03-12T13:11:20.062Z,4.33
2023-03-12T13:12:19.876Z,3.50
2023-03-12T13:13:22.950Z,2.86
2023-03-12T13:14:26.013Z,2.71
2023-03-12T13:15:29.367Z,3.00
2023-03-12T13:16:32.583Z,4.86
2023-03-12T13:17:35.583Z,6.00
2023-03-12T13:18:38.964Z,4.67
2023-03-12T13:19:44.864Z,2.00
2023-03-12T13:20:46.545Z,3.00
2023-03-12T13:21:49.825Z,3.57
2023-03-12T13:22:52.950Z,4.14
2023-03-12T13:23:55.883Z,5.14
2023-03-12T13:24:59.059Z,4.43
2023-03-12T13:26:02.239Z,3.67
2023-03-12T13:27:05.422Z,2.33
2023-03-12T13:28:08.512Z,3.67
2023-03-12T13:29:12.853Z,4.67
2023-03-12T13:30:15.869Z,3.25
2023-03-12T13:31:19.012Z,3.00
2023-03-12T13:32:22.166Z,4.29
2023-03-12T13:33:25.391Z,4.57
2023-03-12T13:34:28.502Z,3.86
2023-03-12T13:35:31.265Z,3.14
2023-03-12T13:36:34.368Z,3.67
2023-03-12T13:37:37.458Z,3.33
2023-03-12T13:38:40.625Z,4.86
2023-03-12T13:39:43.812Z,3.71
2023-03-12T13:40:46.994Z,3.14
2023-03-12T13:41:50.174Z,5.00
2023-03-12T13:42:53.358Z,3.57
2023-03-12T13:43:56.402Z,3.43
2023-03-12T13:44:59.529Z,3.50
2023-03-12T13:46:03.510Z,3.00
2023-03-12T13:47:06.707Z,4.62
2023-03-12T13:48:09.860Z,4.33
2023-03-12T13:49:12.968Z,3.71
2023-03-12T13:50:15.956Z,4.00
2023-03-12T13:51:19.122Z,3.57
2023-03-12T13:52:22.241Z,3.71
2023-03-12T13:53:25.397Z,3.17
2023-03-12T13:54:28.426Z,3.00
2023-03-12T13:55:31.438Z,3.00
2023-03-12T13:56:34.620Z,3.29
2023-03-12T13:57:38.898Z,4.43